Cincinnati Municipal Airport Lunken Field
KLUK : now visible

Airfield :











YOU CAN JOIN US ON...

 
LOGIN :

Register | Disclaimer

   EN    FR    IT 

 









Legend :    VFR   Marginal VFR   IFR   Intensive IFR   Very Intensive IFR
Visi :
Ceiling :
>= 8 km
>= 3000ft
5 to 8 km
1000 to 3000 ft
1500m to 5 km
500 to 1000 ft
800 to 1500m
200 to 500 ft
< 800m
< 200 ft
Symbols :   Thunderstorms  Fog  Heavy snow  Heavy precipitations  Wind > 20 kt






- Airport Elevation : 483 ft
- IATA code : LUK


KLUK - Cincinnati Municipal Lunken Field

CURRENT METAR :
  • 260532Z AUTO 00000KT 1 1/4SM BR CLR 19/18 A2989 RMK AO2 VIS 1/4V4 T01890178

EXPIRED METARs :
  • 260453Z AUTO 00000KT 6SM BR CLR 19/18 A2989 RMK AO2 SLP119 T01940178 402940183
  • 260353Z AUTO 00000KT 7SM CLR 19/17 A2989 RMK AO2 SLP119 T01890172
  • 260253Z 00000KT 8SM CLR 20/18 A2988 RMK AO2 SLP113 T02000183 51016
  • 260153Z 00000KT 10SM CLR 22/19 A2986 RMK AO2 SLP108 T02220189
  • 260053Z 30003KT 10SM CLR 24/18 A2985 RMK AO2 SLP103 T02440183

TAF KLUK
Valid from the 26 at 00:00 until the 27 at 00:00 UTC


252331Z 2600/2624 VRB03KT P6SM SCT250
FM260600 00000KT 3SM BR SCT250
TEMPO 2608/2611 1SM BR
FM261300 16006KT P6SM BKN040
FM262000 19010KT P6SM VCTS BKN040CB
KZID FIR / North America



MET'MAP, your aeronautical weather chart ! - Copyright ORBIFLY December 2007 - Disclaimer

ORBIFLY MET'MAP TEAM :

Programming & Development : Alexandra Zaïnal
Original concept : Baudouin d'Aumeries
Technical & hardware support : Manuel Goepfert
Assistance : Marc-Olivier Méhu




SOURCES & CREDITS :

   NOAA       Earth
Advisory